Time;durP1;ratioP1;P1;durP2;ratioP2;P2;SDS_P1;SDS_P2;PMS_P1;PMS_P2;Temp;Humidity;BMP_temperature;BMP_pressure;BME280_temperature;BME280_humidity;BME280_pressure;Samples;Min_cycle;Max_cycle;Signal;HPM_P1;HPM_P2
2021/11/07 00:04:06;;;;;;;9.50;1.90;;;31.50;35.00;;;;;;5036568;28;20031;-65
2021/11/07 00:06:37;;;;;;;13.20;2.20;;;31.10;35.20;;;;;;5035911;28;20067;-65
2021/11/07 00:11:56;;;;;;;15.73;3.03;;;30.90;36.10;;;;;;5053136;28;20610;-63
2021/11/07 00:14:23;;;;;;;14.20;3.40;;;30.80;36.10;;;;;;5035259;28;20307;-62
2021/11/07 00:16:50;;;;;;;20.52;3.53;;;30.80;37.20;;;;;;5018474;28;20087;-65
2021/11/07 00:19:39;;;;;;;17.98;2.97;;;30.50;78.90;;;;;;5035086;28;20402;-65
2021/11/07 00:29:40;;;;;;;12.40;4.07;;;30.30;38.70;;;;;;5052737;28;20017;-64
2021/11/07 00:37:31;;;;;;;27.70;5.13;;;;;;;;;;5053190;28;20490;-64
2021/11/07 00:45:36;;;;;;;27.60;4.68;;;29.50;41.70;;;;;;4991183;28;20087;-66
2021/11/07 00:50:47;;;;;;;32.28;5.00;;;29.20;55.20;;;;;;4990649;28;20109;-64
2021/11/07 00:53:28;;;;;;;32.80;5.45;;;28.90;58.00;;;;;;4974431;28;20038;-65
2021/11/07 00:58:42;;;;;;;31.92;6.07;;;28.70;43.90;;;;;;4975074;28;20186;-64
2021/11/07 01:01:13;;;;;;;34.45;6.35;;;28.40;71.50;;;;;;4989224;28;20158;-64
2021/11/07 01:03:41;;;;;;;34.97;7.32;;;28.40;44.50;;;;;;4973992;28;20096;-61
2021/11/07 01:06:09;;;;;;;44.55;7.97;;;28.40;76.40;;;;;;4974751;28;20103;-65
2021/11/07 01:08:36;;;;;;;39.67;8.68;;;28.10;45.40;;;;;;4974229;28;20034;-64
2021/11/07 01:11:03;;;;;;;38.95;7.32;;;27.90;54.20;;;;;;4973676;28;20026;-64
2021/11/07 01:13:30;;;;;;;45.35;7.47;;;27.90;46.30;;;;;;4958117;28;20178;-63
2021/11/07 01:15:57;;;;;;;33.20;6.55;;;27.80;46.80;;;;;;4957655;28;20111;-64
2021/11/07 01:18:24;;;;;;;49.28;7.70;;;27.60;47.20;;;;;;4990182;28;20110;-63
2021/11/07 01:20:52;;;;;;;86.78;9.70;;;27.60;47.00;;;;;;5029359;28;20074;-64
2021/11/07 01:23:31;;;;;;;59.00;9.40;;;27.50;46.30;;;;;;5033594;28;20109;-65
2021/11/07 01:26:06;;;;;;;60.28;11.23;;;;;;;;;;5018955;28;21981;-64
2021/11/07 01:28:40;;;;;;;53.67;12.10;;;27.30;76.90;;;;;;5049986;28;20368;-65
2021/11/07 01:31:07;;;;;;;59.72;10.63;;;;;;;;;;5033469;28;20122;-64
2021/11/07 01:33:33;;;;;;;56.10;10.70;;;27.50;69.10;;;;;;5017021;28;20032;-65
2021/11/07 01:38:35;;;;;;;46.90;9.52;;;27.50;65.40;;;;;;5051012;28;20017;-64
2021/11/07 01:41:05;;;;;;;45.97;9.52;;;;;;;;;;5017649;28;20036;-65
2021/11/07 01:43:32;;;;;;;38.47;9.80;;;27.50;70.80;;;;;;5033080;28;20025;-66
2021/11/07 01:46:50;;;;;;;61.60;10.90;;;;;;;;;;5017327;28;20410;-64
2021/11/07 01:48:51;;;;;;;56.83;10.27;;;;;;;;;;5025798;28;20029;-64
2021/11/07 01:51:17;;;;;;;49.75;10.43;;;;;;;;;;5049590;28;20383;-65
2021/11/07 01:53:45;;;;;;;42.90;9.50;;;;;;;;;;5032882;28;20025;-64
2021/11/07 01:56:14;;;;;;;53.53;10.30;;;27.40;72.90;;;;;;5033394;28;20170;-65
2021/11/07 01:58:41;;;;;;;40.33;9.75;;;;;;;;;;5032792;28;20510;-64
2021/11/07 02:01:08;;;;;;;45.40;10.13;;;;;;;;;;5032775;28;20471;-64
2021/11/07 02:03:35;;;;;;;46.08;9.02;;;;;;;;;;5049352;28;20033;-65
2021/11/07 02:06:02;;;;;;;44.90;9.73;;;;;;;;;;5050916;28;20029;-64
2021/11/07 02:08:29;;;;;;;43.85;8.18;;;26.90;71.30;;;;;;5032937;28;20022;-65
2021/11/07 02:10:56;;;;;;;45.55;8.95;;;;;;;;;;5032261;28;20032;-63
2021/11/07 02:13:25;;;;;;;40.60;8.35;;;26.90;89.90;;;;;;5050802;28;20538;-64
2021/11/07 02:15:52;;;;;;;34.60;8.13;;;26.90;91.20;;;;;;5033232;28;20116;-65
2021/11/07 02:18:19;;;;;;;38.17;8.18;;;27.00;81.60;;;;;;5032724;28;20378;-65
2021/11/07 02:20:48;;;;;;;39.63;7.60;;;26.80;78.70;;;;;;5032741;28;20032;-65
2021/11/07 02:23:20;;;;;;;33.72;8.45;;;26.70;72.40;;;;;;5016350;28;20179;-65
2021/11/07 02:25:50;;;;;;;42.58;10.00;;;26.90;60.00;;;;;;5032728;28;20074;-65
2021/11/07 02:28:32;;;;;;;49.70;10.68;;;26.40;90.10;;;;;;5032744;28;20028;-63
2021/11/07 02:30:59;;;;;;;33.92;9.98;;;26.40;79.70;;;;;;5032826;28;20025;-65
2021/11/07 02:33:26;;;;;;;40.45;10.50;;;26.40;62.40;;;;;;5032678;28;20024;-65
2021/11/07 02:35:52;;;;;;;46.03;10.80;;;26.30;50.70;;;;;;5049921;28;20078;-64
2021/11/07 02:38:19;;;;;;;50.55;10.90;;;26.20;50.70;;;;;;5032385;28;20128;-65
2021/11/07 02:40:46;;;;;;;50.67;12.00;;;26.10;50.90;;;;;;5030795;28;20094;-65
2021/11/07 02:43:13;;;;;;;50.22;12.52;;;26.10;50.80;;;;;;5014785;28;20091;-63
2021/11/07 02:45:39;;;;;;;70.18;12.63;;;26.10;50.30;;;;;;5031358;28;20088;-56
2021/11/07 02:48:06;;;;;;;52.58;12.57;;;26.00;50.20;;;;;;5031415;28;20515;-62
2021/11/07 02:50:33;;;;;;;52.47;13.00;;;;;;;;;;5031367;28;20089;-65
2021/11/07 02:52:59;;;;;;;52.22;13.05;;;;;;;;;;5040058;28;20025;-57
2021/11/07 02:55:26;;;;;;;62.92;13.85;;;26.00;57.30;;;;;;5032602;28;20157;-63
2021/11/07 02:58:00;;;;;;;59.45;13.95;;;25.90;49.90;;;;;;5031703;28;20126;-63
2021/11/07 03:00:32;;;;;;;56.50;13.40;;;;;;;;;;5032126;28;20623;-66
2021/11/07 03:02:59;;;;;;;73.30;13.05;;;;;;;;;;5049595;28;20041;-63
2021/11/07 03:05:29;;;;;;;51.13;13.80;;;25.40;77.10;;;;;;5031054;28;20060;-66
2021/11/07 03:07:56;;;;;;;63.30;12.82;;;;;;;;;;5049674;28;20113;-60
2021/11/07 03:10:25;;;;;;;60.67;12.48;;;26.00;86.40;;;;;;5050308;28;20079;-64
2021/11/07 03:13:11;;;;;;;57.10;13.27;;;25.70;59.30;;;;;;5049612;28;20033;-64
2021/11/07 03:15:40;;;;;;;62.00;12.07;;;;;;;;;;5032191;28;20139;-66
2021/11/07 03:18:07;;;;;;;55.90;11.27;;;25.50;66.10;;;;;;5048922;28;20033;-65
2021/11/07 03:20:34;;;;;;;54.92;11.32;;;25.50;65.90;;;;;;5050112;28;20498;-66
2021/11/07 03:23:01;;;;;;;56.28;9.88;;;;;;;;;;5052563;28;20063;-66
2021/11/07 03:25:28;;;;;;;40.20;8.80;;;25.60;73.90;;;;;;5034978;28;20025;-65
2021/11/07 03:27:55;;;;;;;38.53;9.57;;;25.50;88.10;;;;;;5034970;28;20537;-66
2021/11/07 03:30:52;;;;;;;42.38;9.18;;;25.50;54.50;;;;;;5053363;28;20092;-65
2021/11/07 03:33:44;;;;;;;;;;;25.40;54.50;;;;;;5054300;28;20097;-64
2021/11/07 03:36:07;;;;;;;40.15;9.02;;;25.30;54.60;;;;;;5053005;28;19965;-64
2021/11/07 03:38:35;;;;;;;43.75;9.82;;;25.20;54.90;;;;;;5034940;28;20132;-63
2021/11/07 03:41:03;;;;;;;37.85;10.02;;;25.20;55.30;;;;;;5035655;28;20132;-64
2021/11/07 03:43:29;;;;;;;45.55;10.70;;;25.20;56.00;;;;;;5052889;28;20117;-64
2021/11/07 03:45:58;;;;;;;50.88;12.10;;;25.20;56.30;;;;;;5035370;28;20078;-62
2021/11/07 03:48:25;;;;;;;52.70;14.10;;;25.10;56.70;;;;;;5035494;28;20092;-64
2021/11/07 03:50:52;;;;;;;63.03;15.40;;;25.10;57.10;;;;;;5034933;28;20089;-64
2021/11/07 03:53:19;;;;;;;69.65;15.88;;;25.10;98.30;;;;;;5031809;28;20524;-65
2021/11/07 03:55:46;;;;;;;63.30;14.93;;;;;;;;;;5042606;28;20032;-64
2021/11/07 03:58:12;;;;;;;61.08;14.80;;;24.90;86.30;;;;;;5051756;28;20040;-66
2021/11/07 04:00:39;;;;;;;48.83;13.57;;;24.70;64.00;;;;;;5019165;28;20127;-65
2021/11/07 04:03:06;;;;;;;52.17;13.23;;;;;;;;;;5034390;28;20044;-63
2021/11/07 04:05:33;;;;;;;66.18;12.65;;;;;;;;;;5035245;28;20033;-65
2021/11/07 04:08:00;;;;;;;53.17;13.57;;;24.80;73.90;;;;;;5035351;28;20475;-62
2021/11/07 04:10:27;;;;;;;48.58;12.48;;;24.70;93.10;;;;;;5052805;28;20070;-63
2021/11/07 04:12:53;;;;;;;39.42;12.65;;;24.90;88.20;;;;;;5034364;28;20092;-63
2021/11/07 04:15:20;;;;;;;47.17;12.05;;;24.60;90.80;;;;;;5035107;28;20088;-63
2021/11/07 04:17:46;;;;;;;50.17;12.15;;;24.90;79.90;;;;;;5034266;28;20629;-62
2021/11/07 04:20:13;;;;;;;46.30;11.35;;;;;;;;;;5034707;28;20168;-63
2021/11/07 04:22:40;;;;;;;37.92;10.38;;;24.80;95.60;;;;;;5051163;28;20106;-62
2021/11/07 04:25:08;;;;;;;48.50;10.23;;;24.60;67.90;;;;;;5051819;28;20066;-65
2021/11/07 04:27:35;;;;;;;39.60;10.10;;;24.50;69.40;;;;;;5052044;28;20620;-64
2021/11/07 04:30:02;;;;;;;38.53;8.52;;;24.50;71.50;;;;;;5031366;28;20168;-65
2021/11/07 04:32:29;;;;;;;35.88;8.52;;;24.40;71.40;;;;;;5040587;28;20077;-63
2021/11/07 04:34:55;;;;;;;40.65;9.27;;;24.10;88.50;;;;;;5023511;28;20093;-62
2021/11/07 04:37:23;;;;;;;36.28;9.38;;;;;;;;;;5034337;28;20037;-63
2021/11/07 04:39:50;;;;;;;35.20;9.77;;;;;;;;;;5032644;28;20482;-63
2021/11/07 04:42:16;;;;;;;38.30;11.05;;;24.30;90.90;;;;;;5030488;28;20069;-63
2021/11/07 04:44:43;;;;;;;38.28;11.25;;;;;;;;;;5023869;28;20022;-63
2021/11/07 04:47:10;;;;;;;47.78;12.55;;;;;;;;;;5031602;28;20017;-62
2021/11/07 04:49:37;;;;;;;47.05;13.02;;;;;;;;;;5032657;28;20021;-64
2021/11/07 04:52:03;;;;;;;44.88;13.45;;;24.20;91.20;;;;;;5032358;28;20028;-64
2021/11/07 04:54:31;;;;;;;34.05;10.85;;;24.20;94.40;;;;;;5032589;28;20021;-62
2021/11/07 04:56:58;;;;;;;39.70;9.73;;;;;;;;;;5044233;28;20017;-65
2021/11/07 04:59:25;;;;;;;41.90;9.65;;;;;;;;;;5050271;28;20128;-63
2021/11/07 05:01:51;;;;;;;43.20;9.68;;;;;;;;;;5050372;28;20104;-63
2021/11/07 05:04:19;;;;;;;46.47;10.65;;;23.70;78.60;;;;;;5032708;28;20040;-64
2021/11/07 05:06:49;;;;;;;39.38;9.80;;;;;;;;;;5033119;28;20074;-62
2021/11/07 05:09:16;;;;;;;39.03;10.95;;;;;;;;;;5032407;28;20112;-65
2021/11/07 05:11:43;;;;;;;36.30;12.25;;;;;;;;;;5042525;28;20025;-62
2021/11/07 05:14:09;;;;;;;36.92;11.05;;;;;;;;;;5030928;28;20479;-62
2021/11/07 05:16:36;;;;;;;36.45;11.50;;;23.50;80.30;;;;;;5020607;28;20136;-63
2021/11/07 05:19:04;;;;;;;43.90;11.65;;;23.50;80.80;;;;;;5028993;28;20089;-64
2021/11/07 05:21:30;;;;;;;43.72;11.30;;;23.50;81.20;;;;;;5035782;28;20168;-64
2021/11/07 05:23:57;;;;;;;35.75;11.45;;;23.40;81.70;;;;;;5031981;28;20089;-63
2021/11/07 05:26:24;;;;;;;36.78;10.57;;;23.30;82.60;;;;;;5031643;28;20416;-63
2021/11/07 05:28:50;;;;;;;36.22;10.85;;;23.30;83.70;;;;;;5030120;28;20487;-64
2021/11/07 05:31:18;;;;;;;35.78;11.32;;;23.30;83.20;;;;;;5031122;28;20128;-64
2021/11/07 05:33:45;;;;;;;38.22;11.70;;;23.30;84.00;;;;;;5029953;28;20105;-66
2021/11/07 05:36:12;;;;;;;39.40;11.43;;;23.20;83.80;;;;;;5031805;28;20463;-65
2021/11/07 05:38:39;;;;;;;38.00;11.18;;;23.10;84.60;;;;;;5030232;28;20524;-65
2021/11/07 05:41:06;;;;;;;39.78;12.15;;;23.10;85.10;;;;;;5029452;28;20113;-63
2021/11/07 05:43:32;;;;;;;54.67;14.63;;;23.00;85.10;;;;;;5021769;28;20093;-63
2021/11/07 05:45:59;;;;;;;51.00;19.13;;;23.00;85.50;;;;;;5024842;28;20136;-64
2021/11/07 05:48:26;;;;;;;67.40;26.27;;;22.80;85.80;;;;;;5042216;28;20456;-65
2021/11/07 05:50:52;;;;;;;70.25;30.95;;;22.80;85.90;;;;;;5025910;28;20543;-64
2021/11/07 05:53:19;;;;;;;76.53;30.75;;;22.80;85.50;;;;;;5030349;28;20154;-64
2021/11/07 05:55:45;;;;;;;53.55;18.40;;;22.80;84.90;;;;;;5031077;28;20078;-64
2021/11/07 05:58:12;;;;;;;55.38;17.17;;;22.30;84.90;;;;;;5047247;28;20076;-63
2021/11/07 06:00:39;;;;;;;48.92;16.83;;;22.70;85.70;;;;;;5047328;28;20107;-63
2021/11/07 06:03:07;;;;;;;48.72;17.13;;;22.70;85.90;;;;;;5038285;28;20096;-64
2021/11/07 06:05:36;;;;;;;49.45;16.98;;;22.80;95.10;;;;;;5043092;28;20085;-64
2021/11/07 06:08:03;;;;;;;54.90;17.40;;;22.60;86.30;;;;;;5043806;22;20498;-64
2021/11/07 06:10:30;;;;;;;54.72;17.20;;;22.60;86.50;;;;;;5050491;28;20535;-63
2021/11/07 06:12:57;;;;;;;54.15;16.25;;;22.50;86.80;;;;;;5050048;28;20423;-63
2021/11/07 06:15:23;;;;;;;48.25;15.15;;;22.60;87.60;;;;;;5049174;28;20089;-62
2021/11/07 06:17:49;;;;;;;45.70;15.90;;;22.60;88.00;;;;;;5049104;28;20164;-63
2021/11/07 06:20:16;;;;;;;57.40;16.27;;;22.50;88.00;;;;;;5033415;28;20090;-63
2021/11/07 06:22:43;;;;;;;59.67;16.10;;;22.50;88.70;;;;;;5048958;28;20085;-64
2021/11/07 06:25:10;;;;;;;43.45;13.52;;;22.40;88.90;;;;;;5049948;28;20076;-62
2021/11/07 06:27:36;;;;;;;50.55;14.95;;;22.30;89.60;;;;;;5046109;28;20095;-65
2021/11/07 06:30:08;;;;;;;46.88;14.13;;;22.30;89.70;;;;;;5032353;28;20084;-64
2021/11/07 06:32:35;;;;;;;48.20;13.75;;;22.30;90.00;;;;;;5030746;28;20549;-62
2021/11/07 06:35:07;;;;;;;44.85;13.75;;;22.30;90.00;;;;;;5050142;28;20150;-61
2021/11/07 06:37:34;;;;;;;50.28;14.57;;;22.30;90.10;;;;;;5068704;28;20851;-62
2021/11/07 06:40:01;;;;;;;44.15;14.00;;;22.20;90.10;;;;;;5047333;28;20084;-64
2021/11/07 06:42:27;;;;;;;45.58;14.80;;;22.30;90.10;;;;;;5049825;28;20107;-63
2021/11/07 06:44:54;;;;;;;46.30;14.23;;;22.20;90.40;;;;;;5048765;28;20081;-63
2021/11/07 06:47:21;;;;;;;45.22;14.68;;;22.20;90.20;;;;;;5048266;28;20160;-62
2021/11/07 06:49:49;;;;;;;51.70;15.15;;;22.10;90.40;;;;;;5046176;28;20094;-64
2021/11/07 06:52:16;;;;;;;47.40;13.90;;;22.10;90.40;;;;;;5030779;28;20077;-63
2021/11/07 06:54:42;;;;;;;51.88;15.10;;;22.00;90.70;;;;;;5048871;28;20512;-64
2021/11/07 06:57:09;;;;;;;64.82;15.43;;;22.00;91.00;;;;;;5052836;28;20074;-63
2021/11/07 06:59:36;;;;;;;59.75;17.13;;;22.00;91.00;;;;;;5035449;28;20161;-64
2021/11/07 07:02:02;;;;;;;63.47;17.85;;;22.00;91.00;;;;;;5053111;28;20188;-62
2021/11/07 07:04:29;;;;;;;53.97;17.65;;;22.00;91.10;;;;;;5017878;28;20065;-64
2021/11/07 07:06:56;;;;;;;70.43;19.40;;;21.90;91.10;;;;;;5034939;28;20078;-65
2021/11/07 07:09:28;;;;;;;59.80;19.88;;;21.80;91.40;;;;;;5017508;28;20180;-64
2021/11/07 07:15:09;;;;;;;76.45;20.60;;;21.60;91.80;;;;;;4970443;28;20090;-63
2021/11/07 07:17:55;;;;;;;67.70;21.00;;;21.70;92.40;;;;;;4957558;28;20130;-64
2021/11/07 07:20:38;;;;;;;78.03;22.73;;;21.70;92.40;;;;;;4952995;28;20651;-63
2021/11/07 07:31:22;;;;;;;77.63;30.80;;;21.70;92.30;;;;;;4970852;28;20166;-63
2021/11/07 07:33:52;;;;;;;76.22;31.38;;;21.60;92.20;;;;;;4959237;28;20071;-63
2021/11/07 07:36:19;;;;;;;76.40;30.58;;;21.60;92.50;;;;;;4955682;28;20083;-65
2021/11/07 07:38:45;;;;;;;93.30;31.83;;;21.60;92.70;;;;;;4955162;28;20150;-61
2021/11/07 07:41:12;;;;;;;80.38;28.92;;;21.60;92.90;;;;;;4963653;28;20430;-63
2021/11/07 07:43:39;;;;;;;66.45;24.90;;;21.60;93.20;;;;;;4969998;28;20092;-63
2021/11/07 07:46:11;;;;;;;64.88;23.30;;;21.60;93.40;;;;;;4938144;28;20075;-62
2021/11/07 07:48:43;;;;;;;73.63;22.63;;;21.60;93.90;;;;;;4940479;28;20110;-63
2021/11/07 07:51:11;;;;;;;72.05;20.10;;;21.50;94.80;;;;;;5014792;28;20518;-64
2021/11/07 07:53:39;;;;;;;63.03;20.02;;;21.50;95.60;;;;;;5001228;28;20078;-62
2021/11/07 07:56:07;;;;;;;47.97;16.20;;;21.40;96.60;;;;;;5033402;28;20566;-63
2021/11/07 07:58:35;;;;;;;53.25;15.70;;;21.60;99.90;;;;;;5051157;28;20073;-63
2021/11/07 08:01:03;;;;;;;45.28;14.50;;;21.40;99.90;;;;;;5034076;28;20444;-63
2021/11/07 08:03:29;;;;;;;34.00;12.35;;;21.40;99.90;;;;;;5031554;28;20180;-63
2021/11/07 08:05:56;;;;;;;47.60;12.32;;;21.40;99.90;;;;;;5031925;28;20116;-62
2021/11/07 08:08:22;;;;;;;36.88;12.48;;;21.40;99.90;;;;;;5032593;28;20124;-64
2021/11/07 08:10:49;;;;;;;41.65;11.90;;;21.40;99.90;;;;;;5033377;28;20066;-64
2021/11/07 08:13:15;;;;;;;32.33;11.13;;;21.40;99.90;;;;;;5032414;28;20503;-62
2021/11/07 08:15:42;;;;;;;42.50;12.88;;;21.30;99.90;;;;;;5034517;28;20470;-64
2021/11/07 08:18:09;;;;;;;38.70;11.80;;;;;;;;;;5034592;28;20029;-63
2021/11/07 08:20:35;;;;;;;40.47;11.52;;;21.30;99.90;;;;;;5032855;28;20093;-61
2021/11/07 08:23:02;;;;;;;35.33;10.63;;;21.50;99.90;;;;;;5050254;28;20051;-62
2021/11/07 08:25:30;;;;;;;36.25;10.65;;;21.30;99.90;;;;;;5032487;28;20124;-63
2021/11/07 08:28:02;;;;;;;37.40;10.50;;;21.30;99.90;;;;;;5033024;28;20128;-62
2021/11/07 08:30:30;;;;;;;35.95;10.68;;;21.30;99.90;;;;;;5050904;28;20519;-63
2021/11/07 08:32:57;;;;;;;26.52;9.70;;;21.20;99.90;;;;;;5016201;28;20047;-64
2021/11/07 08:35:24;;;;;;;29.83;9.98;;;21.20;99.90;;;;;;5032768;28;20086;-63
2021/11/07 08:40:24;;;;;;;28.60;10.20;;;21.20;99.90;;;;;;5051036;28;20198;-65
2021/11/07 08:42:57;;;;;;;40.83;11.90;;;21.10;99.90;;;;;;5032446;28;20082;-62
2021/11/07 09:04:25;;;;;;;22.23;11.38;;;20.80;99.90;;;;;;5048925;28;20084;-62
2021/11/07 09:09:23;;;;;;;33.85;13.40;;;20.80;99.90;;;;;;5031268;28;20144;-62
2021/11/07 09:11:52;;;;;;;28.67;14.65;;;20.80;99.90;;;;;;5031706;28;20073;-63
2021/11/07 09:14:23;;;;;;;34.85;16.15;;;20.80;99.90;;;;;;5049825;28;20103;-62
2021/11/07 09:16:50;;;;;;;33.25;14.85;;;20.70;99.90;;;;;;5033852;28;20078;-61
2021/11/07 09:19:22;;;;;;;35.15;14.73;;;20.70;99.90;;;;;;5014697;28;20069;-62
2021/11/07 09:21:52;;;;;;;29.40;14.70;;;20.70;99.90;;;;;;5048154;28;20062;-63
2021/11/07 09:24:37;;;;;;;29.05;15.35;;;20.70;99.90;;;;;;5050005;28;20085;-61
2021/11/07 09:27:12;;;;;;;32.90;14.48;;;20.70;99.90;;;;;;5030355;28;20564;-62
2021/11/07 09:34:58;;;;;;;27.52;13.57;;;20.60;99.90;;;;;;5048993;28;20081;-61
2021/11/07 09:40:01;;;;;;;28.98;15.77;;;20.60;99.90;;;;;;5049558;28;20447;-62
2021/11/07 09:45:06;;;;;;;30.42;15.50;;;20.60;99.90;;;;;;5048892;28;20131;-61
2021/11/07 09:47:36;;;;;;;29.58;15.07;;;20.50;99.90;;;;;;5016936;28;20461;-62
2021/11/07 09:50:06;;;;;;;22.70;14.35;;;20.50;99.90;;;;;;5016201;28;20113;-64
2021/11/07 09:52:38;;;;;;;25.00;14.65;;;20.50;99.90;;;;;;5031036;28;20073;-65
2021/11/07 09:55:06;;;;;;;26.65;15.57;;;20.50;99.90;;;;;;5048402;28;20089;-63
2021/11/07 09:57:35;;;;;;;25.25;16.60;;;20.30;99.90;;;;;;5033139;28;20127;-62
2021/11/07 10:00:06;;;;;;;31.38;18.23;;;20.30;99.90;;;;;;5030741;28;20219;-62
2021/11/07 10:02:33;;;;;;;33.55;18.38;;;20.20;99.90;;;;;;5014409;28;20112;-62
2021/11/07 10:05:02;;;;;;;30.73;16.02;;;20.20;99.90;;;;;;5032985;28;20487;-62
2021/11/07 10:07:36;;;;;;;21.80;14.52;;;20.20;99.90;;;;;;5014832;28;20109;-60
2021/11/07 10:10:25;;;;;;;31.80;18.17;;;20.10;99.90;;;;;;5030935;28;20076;-62
2021/11/07 10:12:55;;;;;;;42.50;21.05;;;20.10;99.90;;;;;;5031318;28;20097;-62
2021/11/07 10:15:28;;;;;;;44.17;25.23;;;20.00;99.90;;;;;;5031308;28;20113;-62
2021/11/07 10:17:59;;;;;;;46.40;24.88;;;20.10;99.90;;;;;;5014986;28;20172;-61
2021/11/07 10:20:38;;;;;;;51.08;25.08;;;20.20;99.90;;;;;;5014312;28;20511;-64
2021/11/07 10:23:08;;;;;;;34.80;20.08;;;20.20;99.90;;;;;;5029804;28;20089;-63
2021/11/07 10:25:44;;;;;;;76.18;25.50;;;20.20;99.90;;;;;;5031306;28;20108;-62
2021/11/07 10:28:48;;;;;;;52.97;21.37;;;20.20;99.90;;;;;;5028932;28;20127;-61
2021/11/07 10:31:29;;;;;;;34.72;20.75;;;20.20;99.90;;;;;;5029788;28;20139;-62
2021/11/07 10:53:25;;;;;;;25.50;17.27;;;20.10;99.90;;;;;;5034987;28;20474;-61
2021/11/07 10:56:01;;;;;;;25.67;16.60;;;20.10;99.90;;;;;;5033763;28;20085;-61
2021/11/07 10:58:39;;;;;;;79.03;19.90;;;20.20;99.90;;;;;;5032374;28;20081;-61
2021/11/07 11:01:13;;;;;;;26.08;16.70;;;20.10;99.90;;;;;;5032856;28;20085;-61
2021/11/07 11:04:05;;;;;;;25.30;16.73;;;20.10;99.90;;;;;;5049705;28;20163;-62
2021/11/07 11:06:32;;;;;;;28.67;17.83;;;20.20;99.90;;;;;;5030872;28;20177;-62
2021/11/07 11:09:05;;;;;;;35.28;18.35;;;20.10;99.90;;;;;;5033189;28;20563;-63
2021/11/07 11:11:47;;;;;;;33.60;19.10;;;20.10;99.90;;;;;;5051152;28;20073;-61
2021/11/07 11:16:55;;;;;;;42.08;24.23;;;20.10;99.90;;;;;;5032914;28;20087;-62
2021/11/07 11:30:28;;;;;;;41.90;23.45;;;20.20;99.90;;;;;;5035466;28;20146;-62
2021/11/07 11:33:10;;;;;;;81.65;25.35;;;20.10;99.90;;;;;;5035442;28;20459;-60
2021/11/07 11:38:33;;;;;;;31.42;20.83;;;20.10;99.90;;;;;;5034013;28;20085;-61
2021/11/07 11:43:34;;;;;;;38.60;22.98;;;20.20;99.90;;;;;;5048858;28;20120;-61
2021/11/07 11:46:12;;;;;;;32.08;21.10;;;20.20;99.90;;;;;;5031336;28;20070;-61
2021/11/07 11:51:42;;;;;;;41.47;22.45;;;20.10;99.90;;;;;;5021514;28;20127;-62
2021/11/07 11:57:01;;;;;;;41.53;21.83;;;20.20;99.90;;;;;;5032413;28;20078;-62
2021/11/07 11:59:34;;;;;;;40.03;21.40;;;20.10;99.90;;;;;;5018274;28;20088;-61
2021/11/07 12:02:22;;;;;;;34.17;20.67;;;20.10;99.90;;;;;;5049347;28;20081;-61
2021/11/07 12:11:15;;;;;;;27.60;18.25;;;20.00;99.90;;;;;;5048847;28;20104;-68
2021/11/07 12:16:23;;;;;;;22.70;16.10;;;20.10;99.90;;;;;;5049141;28;20066;-62
2021/11/07 12:19:11;;;;;;;30.67;19.42;;;20.10;99.90;;;;;;5031444;28;20073;-62
2021/11/07 12:22:02;;;;;;;34.42;19.85;;;20.10;99.90;;;;;;5029848;28;20073;-62
2021/11/07 12:24:33;;;;;;;249.73;82.88;;;20.10;99.90;;;;;;5031145;28;20103;-62
2021/11/07 12:27:35;;;;;;;178.48;94.43;;;20.10;99.90;;;;;;5031016;28;20186;-61
2021/11/07 12:30:24;;;;;;;211.73;108.47;;;20.00;99.90;;;;;;5031176;28;20077;-64
2021/11/07 12:33:12;;;;;;;290.33;140.50;;;20.10;99.90;;;;;;5027639;28;20676;-62
2021/11/07 12:35:39;;;;;;;355.63;185.55;;;20.10;99.90;;;;;;5030316;28;21008;-63
2021/11/07 12:41:03;;;;;;;400.38;150.50;;;20.00;99.90;;;;;;5048827;28;20077;-62
2021/11/07 12:43:42;;;;;;;233.98;103.88;;;19.90;99.90;;;;;;5030166;28;20124;-62
2021/11/07 12:49:15;;;;;;;240.00;101.40;;;19.80;99.90;;;;;;5004316;28;20894;-62
2021/11/07 12:51:49;;;;;;;240.73;82.47;;;19.90;99.90;;;;;;5004973;28;20148;-62
2021/11/07 12:54:20;;;;;;;236.38;86.38;;;19.90;99.90;;;;;;5003703;28;20094;-62
2021/11/07 12:57:04;;;;;;;195.60;80.35;;;19.90;99.90;;;;;;5000826;28;20640;-63
2021/11/07 12:59:40;;;;;;;198.23;74.82;;;19.90;99.90;;;;;;4966278;28;20102;-61
2021/11/07 13:02:13;;;;;;;182.25;74.40;;;19.90;99.90;;;;;;4989075;28;20070;-62
2021/11/07 13:07:58;;;;;;;107.82;52.75;;;19.80;99.90;;;;;;5005155;28;20157;-62
2021/11/07 13:10:48;;;;;;;78.80;41.20;;;19.70;99.90;;;;;;4989837;28;20160;-67
2021/11/07 13:18:57;;;;;;;60.70;34.78;;;19.90;99.90;;;;;;4976874;28;20144;-63
2021/11/07 13:21:42;;;;;;;54.45;33.88;;;19.80;99.90;;;;;;4996981;28;20165;-63
2021/11/07 13:24:55;;;;;;;65.07;37.10;;;19.80;99.90;;;;;;5015130;28;20109;-63
2021/11/07 13:29:48;;;;;;;58.75;36.47;;;19.80;99.90;;;;;;5047224;28;20097;-63
2021/11/07 13:32:34;;;;;;;68.18;39.35;;;19.80;99.90;;;;;;5004870;28;20100;-63
2021/11/07 13:35:10;;;;;;;65.07;40.00;;;19.80;99.90;;;;;;5029611;28;20066;-62
2021/11/07 13:37:42;;;;;;;107.93;47.63;;;19.70;99.90;;;;;;5027840;28;20069;-63
2021/11/07 13:40:26;;;;;;;194.25;49.55;;;19.80;99.90;;;;;;5027114;28;20070;-65
2021/11/07 13:43:01;;;;;;;90.20;43.92;;;19.80;99.90;;;;;;5026754;28;20451;-64
2021/11/07 13:45:31;;;;;;;87.47;47.80;;;19.80;99.90;;;;;;5043470;28;20159;-64
2021/11/07 13:48:00;;;;;;;241.50;61.10;;;19.80;99.90;;;;;;5026104;28;20093;-64
2021/11/07 13:50:32;;;;;;;135.57;65.95;;;19.80;99.90;;;;;;5025597;28;20090;-64
2021/11/07 13:53:00;;;;;;;313.23;101.70;;;19.80;99.90;;;;;;5028040;28;20240;-63
2021/11/07 13:55:33;;;;;;;218.07;101.13;;;19.90;99.90;;;;;;5011705;28;20089;-60
2021/11/07 13:58:25;;;;;;;219.38;104.07;;;19.80;99.90;;;;;;5027200;28;20239;-62
2021/11/07 14:00:55;;;;;;;222.40;103.25;;;19.80;99.90;;;;;;5026751;28;20121;-63
2021/11/07 14:03:22;;;;;;;238.15;104.10;;;19.80;99.90;;;;;;5010019;28;20085;-62
2021/11/07 14:06:18;;;;;;;267.63;115.32;;;19.80;99.90;;;;;;5045893;28;20073;-62
2021/11/07 14:08:50;;;;;;;254.23;114.85;;;19.80;99.90;;;;;;5014615;28;20109;-63
2021/11/07 14:11:21;;;;;;;267.77;117.55;;;19.70;99.90;;;;;;5028321;28;20077;-65
2021/11/07 14:13:50;;;;;;;313.20;130.52;;;19.80;99.90;;;;;;5011484;28;20434;-62
2021/11/07 14:16:32;;;;;;;402.17;129.98;;;19.70;99.90;;;;;;5027942;28;20077;-63
2021/11/07 14:18:59;;;;;;;278.90;120.32;;;19.80;99.90;;;;;;5046074;28;20081;-63
2021/11/07 14:21:30;;;;;;;342.17;121.13;;;19.70;99.90;;;;;;5028185;28;20160;-63
2021/11/07 14:26:37;;;;;;;274.35;101.60;;;19.70;99.90;;;;;;5012928;28;20062;-62
2021/11/07 14:35:11;;;;;;;353.88;85.25;;;19.70;99.90;;;;;;5047302;28;20088;-63
2021/11/07 14:40:20;;;;;;;325.52;93.32;;;19.70;99.90;;;;;;5047625;28;20173;-64
2021/11/07 14:43:15;;;;;;;227.50;63.80;;;19.60;99.90;;;;;;5028921;28;20100;-63
2021/11/07 15:07:45;;;;;;;70.72;39.08;;;19.70;99.90;;;;;;5047612;28;20101;-64
2021/11/07 15:12:56;;;;;;;99.45;50.97;;;19.60;99.90;;;;;;5030580;28;20185;-63
2021/11/07 15:18:44;;;;;;;87.65;47.53;;;19.70;99.90;;;;;;5050909;28;20208;-64
2021/11/07 15:24:11;;;;;;;122.78;58.17;;;19.80;99.90;;;;;;4990476;28;20750;-63
2021/11/07 15:26:48;;;;;;;112.75;56.63;;;19.90;99.90;;;;;;4974075;28;20074;-65
2021/11/07 15:29:23;;;;;;;119.75;59.97;;;20.00;99.90;;;;;;4973151;28;20122;-63
2021/11/07 15:32:11;;;;;;;180.55;65.50;;;19.90;99.90;;;;;;4973009;28;20081;-64
2021/11/07 15:34:41;;;;;;;130.05;60.83;;;19.90;99.90;;;;;;4988462;23;20198;-63
2021/11/07 15:37:10;;;;;;;140.88;64.75;;;20.00;99.90;;;;;;5001866;28;20082;-64
2021/11/07 15:39:47;;;;;;;129.00;64.18;;;20.10;99.90;;;;;;5008051;28;20087;-66
2021/11/07 15:42:35;;;;;;;116.90;58.00;;;20.30;99.90;;;;;;5004015;28;20475;-63
2021/11/07 15:45:25;;;;;;;110.40;56.17;;;20.40;99.90;;;;;;5021092;28;20120;-64
2021/11/07 15:50:42;;;;;;;120.40;62.15;;;20.60;99.90;;;;;;5020996;28;20152;-63
2021/11/07 15:53:22;;;;;;;112.57;57.47;;;20.50;99.90;;;;;;5020780;28;20077;-65
2021/11/07 15:58:48;;;;;;;125.32;60.75;;;20.80;99.90;;;;;;5021923;28;20159;-64
2021/11/07 16:01:30;;;;;;;104.45;53.92;;;21.00;99.90;;;;;;5008701;28;20082;-63
2021/11/07 16:04:30;;;;;;;116.30;54.55;;;21.40;99.90;;;;;;5023520;28;20100;-63
2021/11/07 16:09:45;;;;;;;100.18;54.67;;;22.60;99.90;;;;;;5021396;28;20070;-62
2021/11/07 16:17:25;;;;;;;88.78;49.05;;;23.80;99.90;;;;;;5021716;28;20524;-64
2021/11/07 16:19:53;;;;;;;78.18;47.30;;;24.30;99.90;;;;;;5037955;28;20090;-65
2021/11/07 16:22:21;;;;;;;72.47;43.88;;;24.30;99.90;;;;;;5020104;28;20052;-63